Terminal Aerodrome Forecast
Issued by NWS

Home | Current Version | Previous Version | Text Only | Print | Product List | Glossary On
Versions: 1 2 3 4 5 6 7 8 9 10 11 12 13 14 15 16 17 18 19 20 21 22 23 24 25 26 27 28 29 30
192
FTUS43 KDVN 180859 AAA
TAFCID
TAF AMD
KCID 180859Z 1809/1906 24006KT 6SM BR OVC006
      TEMPO 1809/1811 SCT008
     FM181100 24008KT P6SM SCT008 OVC010
     FM181500 20007KT P6SM SCT010 SCT040=

USA.gov is the U.S. government's official web portal to all federal, state and local government web resources and services.